createdAt,value
2022-08-27T00:00:46.749Z,65.44
2022-08-27T00:01:54.718Z,65.81
2022-08-27T00:03:04.392Z,66.27
2022-08-27T00:04:11.951Z,65.84
2022-08-27T00:05:20.364Z,66.47
2022-08-27T00:06:28.058Z,66.56
2022-08-27T00:07:36.124Z,66.54
2022-08-27T00:08:47.914Z,66.39
2022-08-27T00:09:54.598Z,66.28
2022-08-27T00:11:06.042Z,66.10
2022-08-27T00:12:12.807Z,66.35
2022-08-27T00:13:21.179Z,66.36
2022-08-27T00:14:31.672Z,65.83
2022-08-27T00:15:39.368Z,66.27
2022-08-27T00:16:45.109Z,66.19
2022-08-27T00:17:51.629Z,66.20
2022-08-27T00:18:58.442Z,66.04
2022-08-27T00:20:08.282Z,66.50
2022-08-27T00:21:15.200Z,66.64
2022-08-27T00:22:20.258Z,66.68
2022-08-27T00:23:28.364Z,66.74
2022-08-27T00:24:38.576Z,66.64
2022-08-27T00:25:57.215Z,66.42
2022-08-27T00:27:09.135Z,66.70
2022-08-27T00:28:19.806Z,66.92
2022-08-27T00:29:29.870Z,66.67
2022-08-27T00:30:38.958Z,66.54
2022-08-27T00:31:51.887Z,66.57
2022-08-27T00:33:00.389Z,66.62
2022-08-27T00:34:09.292Z,66.69
2022-08-27T00:35:19.259Z,66.84
2022-08-27T00:36:27.150Z,67.05
2022-08-27T00:37:36.941Z,67.26
2022-08-27T00:38:47.209Z,66.93
2022-08-27T00:39:59.147Z,66.86
2022-08-27T00:41:12.595Z,66.87
2022-08-27T00:42:23.911Z,66.95
2022-08-27T00:43:49.062Z,66.87
2022-08-27T00:45:03.425Z,66.57
2022-08-27T00:47:05.093Z,66.61
2022-08-27T00:48:18.309Z,66.60
2022-08-27T00:49:38.603Z,66.46
2022-08-27T00:50:54.826Z,66.02
2022-08-27T00:52:48.224Z,65.92
2022-08-27T00:54:01.235Z,65.64
2022-08-27T00:55:15.744Z,65.67
2022-08-27T00:56:33.665Z,65.64
2022-08-27T00:58:05.093Z,65.98
2022-08-27T00:59:19.541Z,66.07
2022-08-27T01:00:28.988Z,65.41
2022-08-27T01:01:59.533Z,65.27
2022-08-27T01:03:13.672Z,65.41
2022-08-27T01:04:23.175Z,65.48
2022-08-27T01:05:40.842Z,65.52
2022-08-27T01:06:47.688Z,65.59
2022-08-27T01:08:05.261Z,66.05
2022-08-27T01:09:19.342Z,66.03
2022-08-27T01:10:31.193Z,66.05
2022-08-27T01:11:37.240Z,66.01
2022-08-27T01:12:53.243Z,66.60
2022-08-27T01:14:01.370Z,66.50
2022-08-27T01:15:20.087Z,66.74
2022-08-27T01:16:40.545Z,66.92
2022-08-27T01:17:48.584Z,66.96
2022-08-27T01:18:59.554Z,67.12
2022-08-27T01:20:33.231Z,67.40
2022-08-27T01:22:20.385Z,67.82
2022-08-27T01:23:55.734Z,67.90
2022-08-27T01:25:13.294Z,67.96
2022-08-27T01:26:19.116Z,68.04
2022-08-27T01:27:31.905Z,68.14
2022-08-27T01:28:43.307Z,68.52
2022-08-27T01:29:55.935Z,68.72
2022-08-27T01:31:06.100Z,68.81
2022-08-27T01:32:22.166Z,69.19
2022-08-27T01:33:29.614Z,69.01
2022-08-27T01:34:34.620Z,68.96
2022-08-27T01:35:45.191Z,69.03
2022-08-27T01:36:51.120Z,69.14
2022-08-27T01:38:03.255Z,69.36
2022-08-27T01:39:16.233Z,69.31
2022-08-27T01:40:27.850Z,69.38
2022-08-27T01:41:38.493Z,69.25
2022-08-27T01:42:51.731Z,69.60
2022-08-27T01:44:00.164Z,69.71
2022-08-27T01:45:16.139Z,69.75
2022-08-27T01:46:28.456Z,69.97
2022-08-27T01:47:36.541Z,69.95
2022-08-27T01:48:46.505Z,69.73
2022-08-27T01:49:57.979Z,70.06
2022-08-27T01:51:02.957Z,70.27
2022-08-27T01:52:13.375Z,70.45
2022-08-27T01:53:27.152Z,70.72
2022-08-27T01:54:33.923Z,70.75
2022-08-27T01:55:40.329Z,70.74
2022-08-27T01:56:48.767Z,71.22
2022-08-27T01:57:55.561Z,71.41
2022-08-27T01:59:01.057Z,71.59
2022-08-27T02:00:14.689Z,71.69
2022-08-27T02:01:20.478Z,71.68
2022-08-27T02:02:26.221Z,71.73
2022-08-27T02:03:31.432Z,71.77
2022-08-27T02:04:37.074Z,72.04
2022-08-27T02:05:49.683Z,71.75
2022-08-27T02:06:54.262Z,71.54
2022-08-27T02:08:00.335Z,71.90
2022-08-27T02:09:05.389Z,71.85
2022-08-27T02:10:14.434Z,71.66
2022-08-27T02:11:20.309Z,71.71
2022-08-27T02:12:25.353Z,71.75
2022-08-27T02:13:30.277Z,71.81
2022-08-27T02:14:36.085Z,71.91
2022-08-27T02:15:44.115Z,72.22
2022-08-27T02:16:52.431Z,71.97
2022-08-27T02:17:57.843Z,72.44
2022-08-27T02:19:02.666Z,72.43
2022-08-27T02:20:09.941Z,72.57
2022-08-27T02:21:15.683Z,72.49
2022-08-27T02:22:21.111Z,72.64
2022-08-27T02:23:27.065Z,73.17
2022-08-27T02:24:32.091Z,73.16
2022-08-27T02:25:37.308Z,73.22
2022-08-27T02:26:42.011Z,73.29
2022-08-27T02:27:48.580Z,73.55
2022-08-27T02:28:53.102Z,73.17
2022-08-27T02:29:58.017Z,72.99
2022-08-27T02:31:03.444Z,73.15
2022-08-27T02:32:17.591Z,73.03
2022-08-27T02:33:28.268Z,72.93
2022-08-27T02:34:32.844Z,72.96
2022-08-27T02:35:44.662Z,72.94
2022-08-27T02:36:49.230Z,72.91
2022-08-27T02:37:54.725Z,73.10
2022-08-27T02:39:00.151Z,73.22
2022-08-27T02:40:07.869Z,73.38
2022-08-27T02:41:12.963Z,73.16
2022-08-27T02:42:17.684Z,73.07
2022-08-27T02:43:25.208Z,72.97
2022-08-27T02:44:31.721Z,72.88
2022-08-27T02:45:38.467Z,73.04
2022-08-27T02:46:43.277Z,73.59
2022-08-27T02:47:49.562Z,73.51
2022-08-27T02:48:54.080Z,73.38
2022-08-27T02:49:58.989Z,73.49
2022-08-27T02:51:07.505Z,73.48
2022-08-27T02:52:12.410Z,73.81
2022-08-27T02:53:18.966Z,73.65
2022-08-27T02:54:26.678Z,74.00
2022-08-27T02:55:31.801Z,74.19
2022-08-27T02:56:38.062Z,74.39
2022-08-27T02:57:44.443Z,74.34
2022-08-27T02:58:49.297Z,74.62
2022-08-27T02:59:55.402Z,74.68
2022-08-27T03:01:05.625Z,74.56
2022-08-27T03:02:17.933Z,74.19
2022-08-27T03:03:23.309Z,74.48
2022-08-27T03:04:29.581Z,74.65
2022-08-27T03:05:34.629Z,74.63
2022-08-27T03:06:50.494Z,74.74
2022-08-27T03:07:57.460Z,74.73
2022-08-27T03:09:11.680Z,74.50
2022-08-27T03:10:20.518Z,74.57
2022-08-27T03:11:25.441Z,74.69
2022-08-27T03:12:29.927Z,74.95
2022-08-27T03:13:39.389Z,75.16
2022-08-27T03:14:45.218Z,75.32
2022-08-27T03:15:50.310Z,75.26
2022-08-27T03:16:56.706Z,75.24
2022-08-27T03:18:20.176Z,75.38
2022-08-27T03:19:25.309Z,75.12
2022-08-27T03:20:30.317Z,74.97
2022-08-27T03:21:36.990Z,75.33
2022-08-27T03:22:42.519Z,75.10
2022-08-27T03:23:50.119Z,75.36
2022-08-27T03:24:55.867Z,75.55
2022-08-27T03:26:04.974Z,75.60
2022-08-27T03:27:10.490Z,75.53
2022-08-27T03:28:22.592Z,75.68
2022-08-27T03:29:28.724Z,75.55
2022-08-27T03:30:33.242Z,75.74
2022-08-27T03:31:38.853Z,75.91
2022-08-27T03:32:43.679Z,75.94
2022-08-27T03:33:48.431Z,76.18
2022-08-27T03:34:54.086Z,76.76
2022-08-27T03:36:00.334Z,76.82
2022-08-27T03:37:05.417Z,76.88
2022-08-27T03:38:11.302Z,77.05
2022-08-27T03:39:15.904Z,77.12
2022-08-27T03:40:21.763Z,77.23
2022-08-27T03:41:45.480Z,77.19
2022-08-27T03:42:52.887Z,77.34
2022-08-27T03:43:58.351Z,77.49
2022-08-27T03:45:04.966Z,77.67
2022-08-27T03:46:10.425Z,77.88
2022-08-27T03:47:16.326Z,77.98
2022-08-27T03:48:23.104Z,77.94
2022-08-27T03:49:29.398Z,78.51
2022-08-27T03:50:42.332Z,78.07
2022-08-27T03:51:47.698Z,78.11
2022-08-27T03:52:53.162Z,78.16
2022-08-27T03:53:58.118Z,77.89
2022-08-27T03:55:05.099Z,78.22
2022-08-27T03:56:11.864Z,78.29
2022-08-27T03:57:18.055Z,78.29
2022-08-27T03:58:22.163Z,78.14
2022-08-27T03:59:26.710Z,78.13
2022-08-27T04:00:32.855Z,78.34
2022-08-27T04:01:39.736Z,77.97
2022-08-27T04:02:49.200Z,78.08
2022-08-27T04:03:53.554Z,77.86
2022-08-27T04:04:59.617Z,77.72
2022-08-27T04:06:04.945Z,77.32
2022-08-27T04:07:10.758Z,77.54
2022-08-27T04:08:15.213Z,77.77
2022-08-27T04:09:20.031Z,77.78
2022-08-27T04:10:24.452Z,77.45
2022-08-27T04:11:29.787Z,77.71
2022-08-27T04:12:34.702Z,77.70
2022-08-27T04:13:41.518Z,77.66
2022-08-27T04:14:45.952Z,77.53
2022-08-27T04:15:53.486Z,77.28
2022-08-27T04:16:58.421Z,77.38
2022-08-27T04:18:04.702Z,77.35
2022-08-27T04:19:10.483Z,77.36
2022-08-27T04:20:35.805Z,77.17
2022-08-27T04:21:41.345Z,76.87
2022-08-27T04:22:46.489Z,76.93
2022-08-27T04:23:51.256Z,77.14
2022-08-27T04:24:58.208Z,77.21
2022-08-27T04:26:07.814Z,77.22
2022-08-27T04:27:12.133Z,77.11
2022-08-27T04:28:17.562Z,76.89
2022-08-27T04:29:22.602Z,77.29
2022-08-27T04:30:26.973Z,77.31
2022-08-27T04:31:32.057Z,77.10
2022-08-27T04:32:38.180Z,77.03
2022-08-27T04:33:43.935Z,77.06
2022-08-27T04:35:01.211Z,76.52
2022-08-27T04:36:11.476Z,76.79
2022-08-27T04:37:23.218Z,76.72
2022-08-27T04:38:29.401Z,76.67
2022-08-27T04:39:34.473Z,76.74
2022-08-27T04:40:58.342Z,76.77
2022-08-27T04:42:03.249Z,76.57
2022-08-27T04:43:07.556Z,76.43
2022-08-27T04:44:14.003Z,76.34
2022-08-27T04:45:18.958Z,76.22
2022-08-27T04:46:31.779Z,76.41
2022-08-27T04:47:36.928Z,76.34
2022-08-27T04:48:44.620Z,76.35
2022-08-27T04:49:49.750Z,76.32
2022-08-27T04:50:54.404Z,76.21
2022-08-27T04:51:59.504Z,75.98
2022-08-27T04:53:05.117Z,76.03
2022-08-27T04:54:12.328Z,76.13
2022-08-27T04:55:18.254Z,76.22
2022-08-27T04:56:25.977Z,76.06
2022-08-27T04:57:31.107Z,75.91
2022-08-27T04:58:36.912Z,75.63
2022-08-27T04:59:41.770Z,75.85
2022-08-27T05:00:53.719Z,75.99
2022-08-27T05:02:00.005Z,75.65
2022-08-27T05:03:08.422Z,75.69
2022-08-27T05:04:19.638Z,75.44
2022-08-27T05:05:28.924Z,75.20
2022-08-27T05:06:37.589Z,75.21
2022-08-27T05:07:42.432Z,75.14
2022-08-27T05:08:51.647Z,75.35
2022-08-27T05:09:56.359Z,75.14
2022-08-27T05:11:03.507Z,75.39
2022-08-27T05:12:09.154Z,75.29
2022-08-27T05:13:15.869Z,75.46
2022-08-27T05:14:22.517Z,75.34
2022-08-27T05:15:27.901Z,75.24
2022-08-27T05:16:33.571Z,75.02
2022-08-27T05:17:39.537Z,74.39
2022-08-27T05:18:48.114Z,74.38
2022-08-27T05:19:54.909Z,74.00
2022-08-27T05:21:00.930Z,73.96
2022-08-27T05:22:06.096Z,72.57
2022-08-27T05:23:12.328Z,73.28
2022-08-27T05:24:19.778Z,72.00
2022-08-27T05:25:27.482Z,72.20
2022-08-27T05:26:37.227Z,72.15
2022-08-27T05:27:42.243Z,71.82
2022-08-27T05:28:46.674Z,71.66
2022-08-27T05:29:51.006Z,71.50
2022-08-27T05:31:08.898Z,70.88
2022-08-27T05:32:13.848Z,70.27
2022-08-27T05:33:26.034Z,69.62
2022-08-27T05:34:32.464Z,68.85
2022-08-27T05:35:52.899Z,68.44
2022-08-27T05:37:01.633Z,67.74
2022-08-27T05:38:07.374Z,67.38
2022-08-27T05:39:11.710Z,67.12
2022-08-27T05:40:17.818Z,66.82
2022-08-27T05:41:34.170Z,66.54
2022-08-27T05:42:39.126Z,66.15
2022-08-27T05:43:49.929Z,65.51
2022-08-27T05:44:56.668Z,64.90
2022-08-27T05:46:08.062Z,64.63
2022-08-27T05:47:13.299Z,64.48
2022-08-27T05:48:19.274Z,63.96
2022-08-27T05:49:25.318Z,64.07
2022-08-27T05:50:30.016Z,63.62
2022-08-27T05:51:37.906Z,63.44
2022-08-27T05:52:42.967Z,63.02
2022-08-27T05:53:47.979Z,62.61
2022-08-27T05:54:55.850Z,61.99
2022-08-27T05:56:01.234Z,61.75
2022-08-27T05:57:08.403Z,61.00
2022-08-27T05:58:34.163Z,60.34
2022-08-27T05:59:57.457Z,59.78
2022-08-27T06:01:09.620Z,59.44
2022-08-27T06:02:15.365Z,58.75
2022-08-27T06:03:21.317Z,58.81
2022-08-27T06:04:27.117Z,58.80
2022-08-27T06:05:32.151Z,58.50
2022-08-27T06:06:40.798Z,58.28
2022-08-27T06:07:45.834Z,57.39
2022-08-27T06:08:54.110Z,57.21
2022-08-27T06:10:00.279Z,56.55
2022-08-27T06:11:08.954Z,55.92
2022-08-27T06:12:14.872Z,55.60
2022-08-27T06:13:20.367Z,54.98
2022-08-27T06:14:26.648Z,54.53
2022-08-27T06:15:32.308Z,53.90
2022-08-27T06:16:40.031Z,53.00
2022-08-27T06:17:44.526Z,51.95
2022-08-27T06:18:51.329Z,51.80
2022-08-27T06:19:57.361Z,50.42
2022-08-27T06:21:05.842Z,50.40
2022-08-27T06:22:11.129Z,49.39
2022-08-27T06:23:15.913Z,49.91
2022-08-27T06:24:24.137Z,49.50
2022-08-27T06:25:29.605Z,48.77
2022-08-27T06:26:36.210Z,48.17
2022-08-27T06:27:41.998Z,47.39
2022-08-27T06:28:46.897Z,47.01
2022-08-27T06:29:52.477Z,46.75
2022-08-27T06:31:26.602Z,43.81
2022-08-27T06:32:32.037Z,43.50
2022-08-27T06:33:38.173Z,42.85
2022-08-27T06:34:43.383Z,42.13
2022-08-27T06:35:49.382Z,40.20
2022-08-27T06:36:56.500Z,39.24
2022-08-27T06:38:04.416Z,37.65
2022-08-27T06:39:14.434Z,36.37
2022-08-27T06:40:23.883Z,34.81
2022-08-27T06:41:30.361Z,34.26
2022-08-27T06:42:39.015Z,33.71
2022-08-27T06:43:46.423Z,32.71
2022-08-27T06:44:51.255Z,31.80
2022-08-27T06:45:57.263Z,30.76
2022-08-27T06:47:04.820Z,30.35
2022-08-27T06:48:10.211Z,29.75
2022-08-27T06:49:19.180Z,28.83
2022-08-27T06:50:27.376Z,28.35
2022-08-27T06:51:36.264Z,27.74
2022-08-27T06:52:43.620Z,27.76
2022-08-27T06:53:51.954Z,27.41
2022-08-27T06:54:57.471Z,26.94
2022-08-27T06:56:03.669Z,26.38
2022-08-27T06:57:10.526Z,25.98
2022-08-27T06:58:22.002Z,25.58
2022-08-27T06:59:28.423Z,25.06
2022-08-27T07:00:33.959Z,24.64
2022-08-27T07:01:44.277Z,25.05
2022-08-27T07:02:56.369Z,24.26
2022-08-27T07:04:05.723Z,24.08
2022-08-27T07:05:12.484Z,23.41
2022-08-27T07:06:18.850Z,23.46
2022-08-27T07:07:30.197Z,23.39
2022-08-27T07:08:43.782Z,22.59
2022-08-27T07:10:00.473Z,22.30
2022-08-27T07:11:10.071Z,22.48
2022-08-27T07:12:17.032Z,22.00
2022-08-27T07:13:25.285Z,21.79
2022-08-27T07:14:37.149Z,21.82
2022-08-27T07:15:44.706Z,21.30
2022-08-27T07:16:51.704Z,21.28
2022-08-27T07:18:00.410Z,21.17
2022-08-27T07:19:07.302Z,20.86
2022-08-27T07:20:14.739Z,20.80
2022-08-27T07:21:20.578Z,20.41
2022-08-27T07:22:26.426Z,20.37
2022-08-27T07:23:34.083Z,20.04
2022-08-27T07:24:38.854Z,19.96
2022-08-27T07:25:44.413Z,19.57
2022-08-27T07:26:51.178Z,19.42
2022-08-27T07:27:56.714Z,19.50
2022-08-27T07:29:04.740Z,19.23
2022-08-27T07:30:16.579Z,18.81
2022-08-27T07:31:25.794Z,18.30
2022-08-27T07:32:33.039Z,18.30
2022-08-27T07:33:46.016Z,17.87
2022-08-27T07:35:00.864Z,17.50
2022-08-27T07:36:10.881Z,17.55
2022-08-27T07:37:16.790Z,17.36
2022-08-27T07:38:23.466Z,17.16
2022-08-27T07:39:31.375Z,17.20
2022-08-27T07:40:38.550Z,17.44
2022-08-27T07:42:05.887Z,16.66
2022-08-27T07:43:30.693Z,17.09
2022-08-27T07:44:42.399Z,17.11
2022-08-27T07:45:57.833Z,16.77
2022-08-27T07:47:04.668Z,16.86
2022-08-27T07:48:12.279Z,16.70
2022-08-27T07:49:18.934Z,17.06
2022-08-27T07:50:26.164Z,16.96
2022-08-27T07:51:33.333Z,16.63
2022-08-27T07:52:42.251Z,16.71
2022-08-27T07:53:50.158Z,16.56
2022-08-27T07:54:57.710Z,16.45
2022-08-27T07:56:09.184Z,16.77
2022-08-27T07:57:16.221Z,16.64
2022-08-27T07:58:21.716Z,16.33
2022-08-27T07:59:29.531Z,16.24
2022-08-27T08:00:36.040Z,16.22
2022-08-27T08:01:48.482Z,16.18
2022-08-27T08:02:53.365Z,16.01
2022-08-27T08:03:58.508Z,15.86
2022-08-27T08:05:03.461Z,16.07
2022-08-27T08:06:14.698Z,16.07
2022-08-27T08:07:19.389Z,15.83
2022-08-27T08:08:25.422Z,15.99
2022-08-27T08:09:34.683Z,15.89
2022-08-27T08:10:43.419Z,15.84
2022-08-27T08:11:49.327Z,15.77
2022-08-27T08:12:55.422Z,15.77
2022-08-27T08:14:02.767Z,15.58
2022-08-27T08:15:11.195Z,15.25
2022-08-27T08:16:16.583Z,15.48
2022-08-27T08:17:23.506Z,15.21
2022-08-27T08:18:31.238Z,15.48
2022-08-27T08:19:36.215Z,15.52
2022-08-27T08:20:57.557Z,15.56
2022-08-27T08:22:06.089Z,15.22
2022-08-27T08:23:10.787Z,15.26
2022-08-27T08:24:16.040Z,15.41
2022-08-27T08:25:23.448Z,15.18
2022-08-27T08:26:30.089Z,15.22
2022-08-27T08:27:36.716Z,15.47
2022-08-27T08:28:42.019Z,14.99
2022-08-27T08:29:48.482Z,15.10
2022-08-27T08:30:57.993Z,15.58
2022-08-27T08:32:06.237Z,15.79
2022-08-27T08:33:11.040Z,15.85
2022-08-27T08:34:16.108Z,16.18
2022-08-27T08:35:25.255Z,16.54
2022-08-27T08:36:30.815Z,16.74
2022-08-27T08:37:38.881Z,17.03
2022-08-27T08:38:48.790Z,17.10
2022-08-27T08:39:55.797Z,16.30
2022-08-27T08:41:02.332Z,16.61
2022-08-27T08:42:26.098Z,16.57
2022-08-27T08:43:40.002Z,16.01
2022-08-27T08:44:54.085Z,15.95
2022-08-27T08:46:18.663Z,15.71
2022-08-27T08:47:57.459Z,15.28
2022-08-27T08:49:45.361Z,14.93
2022-08-27T08:51:16.961Z,15.23
2022-08-27T08:52:55.688Z,15.06
2022-08-27T08:54:10.356Z,15.58
2022-08-27T08:55:49.574Z,15.23
2022-08-27T08:57:25.813Z,15.62
2022-08-27T08:59:17.002Z,16.45
2022-08-27T09:00:22.262Z,16.20
2022-08-27T09:01:30.037Z,16.54
2022-08-27T09:02:35.303Z,16.40
2022-08-27T09:03:49.132Z,16.12
2022-08-27T09:04:56.863Z,16.47
2022-08-27T09:06:19.079Z,16.47
2022-08-27T09:08:32.931Z,15.83
2022-08-27T09:10:08.618Z,15.78
2022-08-27T09:11:30.505Z,15.60
2022-08-27T09:12:35.505Z,15.68
2022-08-27T09:14:31.684Z,15.91
2022-08-27T09:15:40.101Z,15.68
2022-08-27T09:16:47.101Z,15.64
2022-08-27T09:17:52.203Z,15.59
2022-08-27T09:19:06.156Z,16.04
2022-08-27T09:20:14.243Z,16.32
2022-08-27T09:21:43.951Z,16.63
2022-08-27T09:23:05.854Z,17.37
2022-08-27T09:24:24.255Z,18.01
2022-08-27T09:25:38.114Z,18.97
2022-08-27T09:26:46.704Z,19.35
2022-08-27T09:27:57.509Z,19.90
2022-08-27T09:29:22.263Z,20.69
2022-08-27T09:30:33.317Z,21.23
2022-08-27T09:31:42.455Z,21.67
2022-08-27T09:33:01.091Z,22.47
2022-08-27T09:34:06.295Z,22.85
2022-08-27T09:35:14.061Z,23.06
2022-08-27T09:36:23.702Z,23.57
2022-08-27T09:37:44.592Z,24.24
2022-08-27T09:39:08.106Z,24.83
2022-08-27T09:40:24.819Z,24.81
2022-08-27T09:41:43.545Z,25.16
2022-08-27T09:42:57.615Z,25.70
2022-08-27T09:44:15.162Z,25.90
2022-08-27T09:45:30.998Z,26.01
2022-08-27T09:46:36.587Z,26.18
2022-08-27T09:47:50.502Z,26.59
2022-08-27T09:48:58.131Z,26.77
2022-08-27T09:50:09.438Z,27.40
2022-08-27T09:51:24.105Z,27.31
2022-08-27T09:52:59.518Z,27.78
2022-08-27T09:54:05.156Z,27.77
2022-08-27T09:55:11.831Z,27.78
2022-08-27T09:56:30.392Z,28.06
2022-08-27T09:57:42.174Z,28.23
2022-08-27T09:59:12.485Z,28.58
2022-08-27T10:00:18.450Z,28.82
2022-08-27T10:01:29.329Z,28.63
2022-08-27T10:02:34.160Z,28.34
2022-08-27T10:03:38.241Z,28.16
2022-08-27T10:04:53.609Z,28.70
2022-08-27T10:05:58.668Z,29.22
2022-08-27T10:07:54.020Z,29.76
2022-08-27T10:09:22.307Z,29.80
2022-08-27T10:11:17.712Z,30.61
2022-08-27T10:13:18.124Z,30.05
2022-08-27T10:14:41.897Z,29.92
2022-08-27T10:16:17.975Z,30.64
2022-08-27T10:17:34.686Z,31.16
2022-08-27T10:18:54.678Z,31.03
2022-08-27T10:20:30.606Z,31.25
2022-08-27T10:21:57.192Z,31.63
2022-08-27T10:23:29.775Z,32.02
2022-08-27T10:25:03.394Z,30.64
2022-08-27T10:26:25.104Z,30.88
2022-08-27T10:27:57.122Z,31.81
2022-08-27T10:29:22.434Z,31.20
2022-08-27T10:30:40.292Z,30.62
2022-08-27T10:32:16.577Z,31.74
2022-08-27T10:33:59.183Z,31.35
2022-08-27T10:35:54.849Z,31.45
2022-08-27T10:37:24.868Z,31.44
2022-08-27T10:38:54.452Z,31.15
2022-08-27T10:40:52.518Z,31.36
2022-08-27T10:42:18.501Z,30.92
2022-08-27T10:44:05.778Z,31.54
2022-08-27T10:45:43.064Z,32.22
2022-08-27T10:47:19.617Z,32.58
2022-08-27T10:48:41.702Z,32.68
2022-08-27T10:50:16.091Z,32.34
2022-08-27T10:51:38.467Z,32.73
2022-08-27T10:53:09.736Z,32.82
2022-08-27T10:54:39.030Z,32.62
2022-08-27T10:55:52.638Z,32.37
2022-08-27T10:57:39.923Z,32.22
2022-08-27T10:59:33.711Z,33.67
2022-08-27T11:01:16.066Z,34.14
2022-08-27T11:03:01.722Z,34.04
2022-08-27T11:04:19.143Z,34.20
2022-08-27T11:05:49.604Z,34.22
2022-08-27T11:07:12.951Z,34.82
2022-08-27T11:08:53.684Z,34.29
2022-08-27T11:10:09.903Z,34.26
2022-08-27T11:13:39.923Z,35.48
2022-08-27T11:15:17.173Z,35.16
2022-08-27T11:16:48.909Z,35.48
2022-08-27T11:18:19.007Z,35.62
2022-08-27T11:19:54.973Z,35.06
2022-08-27T11:21:11.086Z,35.26
2022-08-27T11:22:38.068Z,34.94
2022-08-27T11:24:02.959Z,34.67
2022-08-27T11:25:23.070Z,34.92
2022-08-27T11:26:32.232Z,35.02
2022-08-27T11:27:40.265Z,34.74
2022-08-27T11:28:53.099Z,34.57
2022-08-27T11:30:27.473Z,34.87
2022-08-27T11:31:53.621Z,36.02
2022-08-27T11:33:13.885Z,36.06
2022-08-27T11:34:48.624Z,36.50
2022-08-27T11:36:11.336Z,37.05
2022-08-27T11:37:43.153Z,37.16
2022-08-27T11:39:34.185Z,37.34
2022-08-27T11:40:57.651Z,37.15
2022-08-27T11:42:10.813Z,37.14
2022-08-27T11:43:26.543Z,37.25
2022-08-27T11:44:32.306Z,37.35
2022-08-27T11:45:58.366Z,37.27
2022-08-27T11:47:25.283Z,37.39
2022-08-27T11:48:37.222Z,36.91
2022-08-27T11:49:57.928Z,37.36
2022-08-27T11:51:08.276Z,37.18
2022-08-27T11:52:23.541Z,38.29
2022-08-27T11:53:49.022Z,37.74
2022-08-27T11:55:29.409Z,37.63
2022-08-27T11:56:44.526Z,37.47
2022-08-27T11:58:29.773Z,37.29
2022-08-27T11:59:37.890Z,37.07
2022-08-27T12:00:45.016Z,37.26
2022-08-27T12:01:54.590Z,37.48
2022-08-27T12:03:09.449Z,37.84
2022-08-27T12:04:32.204Z,37.71
2022-08-27T12:05:45.724Z,38.09
2022-08-27T12:07:18.064Z,38.41
2022-08-27T12:08:23.032Z,38.29
2022-08-27T12:09:29.256Z,39.05
2022-08-27T12:11:07.656Z,39.15
2022-08-27T12:12:47.598Z,39.35
2022-08-27T12:14:15.321Z,39.07
2022-08-27T12:15:58.901Z,38.88
2022-08-27T12:17:33.276Z,39.52
2022-08-27T12:19:04.457Z,39.43
2022-08-27T12:20:34.960Z,38.60
2022-08-27T12:22:21.756Z,38.53
2022-08-27T12:23:51.801Z,38.38
2022-08-27T12:24:59.899Z,38.08
2022-08-27T12:26:36.328Z,38.20
2022-08-27T12:27:41.041Z,38.48
2022-08-27T12:28:45.858Z,37.97
2022-08-27T12:29:54.905Z,37.84
2022-08-27T12:30:59.919Z,37.78
2022-08-27T12:32:36.374Z,37.96
2022-08-27T12:33:47.446Z,37.53
2022-08-27T12:35:11.415Z,37.45
2022-08-27T12:36:28.698Z,37.80
2022-08-27T12:37:40.916Z,38.07
2022-08-27T12:38:56.191Z,37.82
2022-08-27T12:40:13.198Z,37.29
2022-08-27T12:41:43.783Z,37.47
2022-08-27T12:42:49.739Z,37.46
2022-08-27T12:44:09.312Z,36.89
2022-08-27T12:45:25.914Z,37.06
2022-08-27T12:46:31.546Z,37.09
2022-08-27T12:47:50.638Z,37.03
2022-08-27T12:49:38.180Z,36.95
2022-08-27T12:50:31.564Z,36.24
2022-08-27T12:51:41.402Z,36.40
2022-08-27T12:53:16.468Z,36.24
2022-08-27T12:54:38.464Z,35.72
2022-08-27T12:56:31.135Z,36.15
2022-08-27T12:58:13.532Z,36.30
2022-08-27T12:59:47.126Z,35.52
2022-08-27T13:01:45.783Z,35.81
2022-08-27T13:02:59.528Z,35.72
2022-08-27T13:04:18.274Z,35.29
2022-08-27T13:05:25.353Z,35.14
2022-08-27T13:06:35.802Z,35.02
2022-08-27T13:07:47.480Z,34.73
2022-08-27T13:09:02.621Z,34.64
2022-08-27T13:10:24.666Z,34.44
2022-08-27T13:11:44.510Z,34.21
2022-08-27T13:13:05.431Z,33.72
2022-08-27T13:14:15.265Z,34.26
2022-08-27T13:15:21.045Z,33.92
2022-08-27T13:16:26.064Z,34.46
2022-08-27T13:17:30.737Z,34.31
2022-08-27T13:18:37.358Z,34.12
2022-08-27T13:20:02.967Z,34.40
2022-08-27T13:21:47.564Z,34.50
2022-08-27T13:22:54.842Z,35.10
2022-08-27T13:24:10.802Z,35.00
2022-08-27T13:25:42.363Z,34.62
2022-08-27T13:26:58.223Z,34.78
2022-08-27T13:28:14.638Z,34.69
2022-08-27T13:29:20.295Z,34.96
2022-08-27T13:30:35.822Z,34.80
2022-08-27T13:31:41.813Z,34.86
2022-08-27T13:32:48.822Z,35.30
2022-08-27T13:34:00.428Z,35.18
2022-08-27T13:35:07.823Z,34.91
2022-08-27T13:36:13.451Z,34.40
2022-08-27T13:37:42.142Z,34.64
2022-08-27T13:38:50.290Z,34.19
2022-08-27T13:39:58.627Z,34.57
2022-08-27T13:41:10.212Z,34.34
2022-08-27T13:42:16.092Z,34.16
2022-08-27T13:43:38.285Z,34.46
2022-08-27T13:44:48.301Z,34.64
2022-08-27T13:45:59.827Z,34.14
2022-08-27T13:47:26.934Z,34.51
2022-08-27T13:48:33.472Z,34.22
2022-08-27T13:49:40.122Z,34.37
2022-08-27T13:50:56.576Z,34.65
2022-08-27T13:52:09.693Z,34.47
2022-08-27T13:53:47.376Z,34.64
2022-08-27T13:55:06.432Z,34.82
2022-08-27T13:56:11.558Z,34.59
2022-08-27T13:57:28.840Z,34.55
2022-08-27T13:58:36.359Z,34.07
2022-08-27T13:59:43.354Z,34.09
2022-08-27T14:00:48.512Z,34.39
2022-08-27T14:02:33.734Z,34.01
2022-08-27T14:04:03.638Z,34.08
2022-08-27T14:05:29.826Z,34.00
2022-08-27T14:06:44.965Z,33.79
2022-08-27T14:07:58.778Z,33.49
2022-08-27T14:09:31.014Z,33.77
2022-08-27T14:10:45.458Z,34.04
2022-08-27T14:11:50.239Z,33.96
2022-08-27T14:13:07.436Z,33.87
2022-08-27T14:14:14.145Z,33.43
2022-08-27T14:15:43.382Z,33.64
2022-08-27T14:17:03.812Z,34.03
2022-08-27T14:18:57.366Z,33.93
2022-08-27T14:20:04.413Z,33.71
2022-08-27T14:21:10.733Z,33.77
2022-08-27T14:22:16.529Z,33.88
2022-08-27T14:23:21.963Z,34.04
2022-08-27T14:24:29.436Z,34.85
2022-08-27T14:25:35.297Z,34.11
2022-08-27T14:26:39.632Z,34.27
2022-08-27T14:27:53.094Z,34.28
2022-08-27T14:28:58.958Z,34.62
2022-08-27T14:30:05.425Z,34.07
2022-08-27T14:31:10.235Z,34.21
2022-08-27T14:32:19.741Z,34.45
2022-08-27T14:33:24.490Z,34.11
2022-08-27T14:34:29.726Z,34.47
2022-08-27T14:35:37.298Z,34.31
2022-08-27T14:36:44.594Z,34.42
2022-08-27T14:37:50.018Z,34.74
2022-08-27T14:38:54.933Z,34.71
2022-08-27T14:40:00.671Z,34.76
2022-08-27T14:41:08.766Z,34.47
2022-08-27T14:42:15.226Z,34.55
2022-08-27T14:43:21.097Z,34.57
2022-08-27T14:44:29.006Z,34.26
2022-08-27T14:45:34.992Z,34.23
2022-08-27T14:46:43.004Z,33.81
2022-08-27T14:47:49.362Z,33.80
2022-08-27T14:48:58.564Z,34.09
2022-08-27T14:50:04.559Z,33.38
2022-08-27T14:51:19.662Z,34.08
2022-08-27T14:52:24.215Z,33.88
2022-08-27T14:53:28.807Z,34.05
2022-08-27T14:54:33.831Z,33.81
2022-08-27T14:55:38.561Z,33.80
2022-08-27T14:56:46.031Z,34.00
2022-08-27T14:57:51.584Z,34.17
2022-08-27T14:58:57.562Z,34.21
2022-08-27T15:00:02.042Z,33.53
2022-08-27T15:01:07.085Z,33.31
2022-08-27T15:02:14.537Z,32.91
2022-08-27T15:03:20.179Z,32.83
2022-08-27T15:04:26.777Z,32.84
2022-08-27T15:05:32.265Z,32.77
2022-08-27T15:06:38.313Z,32.91
2022-08-27T15:07:47.120Z,32.76
2022-08-27T15:08:55.597Z,32.51
2022-08-27T15:10:01.249Z,32.55
2022-08-27T15:11:07.543Z,32.43
2022-08-27T15:12:26.034Z,32.52
2022-08-27T15:13:33.021Z,32.39
2022-08-27T15:14:39.085Z,32.38
2022-08-27T15:15:44.330Z,32.35
2022-08-27T15:16:50.052Z,32.16
2022-08-27T15:17:55.156Z,31.77
2022-08-27T15:19:01.925Z,31.36
2022-08-27T15:20:19.930Z,31.75
2022-08-27T15:21:27.387Z,31.86
2022-08-27T15:22:38.476Z,31.38
2022-08-27T15:23:49.436Z,31.49
2022-08-27T15:24:58.825Z,32.01
2022-08-27T15:26:03.538Z,31.70
2022-08-27T15:27:14.967Z,32.37
2022-08-27T15:28:23.308Z,32.92
2022-08-27T15:29:36.751Z,33.11
2022-08-27T15:30:41.738Z,33.12
2022-08-27T15:31:48.218Z,33.47
2022-08-27T15:32:54.325Z,33.65
2022-08-27T15:33:59.712Z,34.23
2022-08-27T15:35:13.263Z,34.50
2022-08-27T15:36:18.157Z,34.22
2022-08-27T15:37:23.592Z,34.48
2022-08-27T15:38:28.512Z,34.28
2022-08-27T15:39:33.383Z,34.34